sensor_id;sensor_type;location;lat;lon;timestamp;P1;durP1;ratioP1;P2;durP2;ratioP2
85815;SDS011;76552;51.206;4.424;2024-03-17T00:00:00;10.68;;;6.20;;
85815;SDS011;76552;51.206;4.424;2024-03-17T00:00:06;10.20;;;6.20;;
85815;SDS011;76552;51.206;4.424;2024-03-17T00:00:15;10.01;;;6.16;;
85815;SDS011;76552;51.206;4.424;2024-03-17T00:00:23;9.80;;;6.07;;
85815;SDS011;76552;51.206;4.424;2024-03-17T00:00:28;9.50;;;5.93;;
85815;SDS011;76552;51.206;4.424;2024-03-17T00:00:33;9.43;;;6.00;;
85815;SDS011;76552;51.206;4.424;2024-03-17T00:00:38;9.68;;;6.10;;
85815;SDS011;76552;51.206;4.424;2024-03-17T00:00:47;9.40;;;6.13;;
85815;SDS011;76552;51.206;4.424;2024-03-17T00:00:52;9.53;;;6.20;;
85815;SDS011;76552;51.206;4.424;2024-03-17T00:01:02;10.18;;;6.28;;
85815;SDS011;76552;51.206;4.424;2024-03-17T00:01:08;10.30;;;6.03;;
85815;SDS011;76552;51.206;4.424;2024-03-17T00:01:13;10.43;;;6.00;;
85815;SDS011;76552;51.206;4.424;2024-03-17T00:01:18;10.73;;;6.07;;
85815;SDS011;76552;51.206;4.424;2024-03-17T00:01:23;10.77;;;5.95;;
85815;SDS011;76552;51.206;4.424;2024-03-17T00:01:29;10.40;;;5.87;;
85815;SDS011;76552;51.206;4.424;2024-03-17T00:01:34;9.90;;;5.87;;
85815;SDS011;76552;51.206;4.424;2024-03-17T00:01:39;10.20;;;6.00;;
85815;SDS011;76552;51.206;4.424;2024-03-17T00:01:47;9.87;;;5.97;;
85815;SDS011;76552;51.206;4.424;2024-03-17T00:01:52;9.67;;;5.93;;
85815;SDS011;76552;51.206;4.424;2024-03-17T00:01:58;9.18;;;6.00;;
85815;SDS011;76552;51.206;4.424;2024-03-17T00:02:03;9.30;;;6.17;;
85815;SDS011;76552;51.206;4.424;2024-03-17T00:02:09;9.43;;;6.10;;
85815;SDS011;76552;51.206;4.424;2024-03-17T00:02:15;9.50;;;6.00;;
85815;SDS011;76552;51.206;4.424;2024-03-17T00:02:20;9.10;;;6.00;;
85815;SDS011;76552;51.206;4.424;2024-03-17T00:02:25;9.13;;;6.07;;
85815;SDS011;76552;51.206;4.424;2024-03-17T00:02:30;9.40;;;5.85;;
85815;SDS011;76552;51.206;4.424;2024-03-17T00:02:36;9.47;;;5.60;;
85815;SDS011;76552;51.206;4.424;2024-03-17T00:02:42;9.55;;;5.63;;
85815;SDS011;76552;51.206;4.424;2024-03-17T00:02:47;10.20;;;5.83;;
85815;SDS011;76552;51.206;4.424;2024-03-17T00:02:53;11.20;;;5.90;;
85815;SDS011;76552;51.206;4.424;2024-03-17T00:02:58;11.40;;;5.83;;
85815;SDS011;76552;51.206;4.424;2024-03-17T00:03:03;12.25;;;6.03;;
85815;SDS011;76552;51.206;4.424;2024-03-17T00:03:09;12.23;;;6.20;;
85815;SDS011;76552;51.206;4.424;2024-03-17T00:03:14;12.27;;;6.20;;
85815;SDS011;76552;51.206;4.424;2024-03-17T00:03:19;11.45;;;6.10;;
85815;SDS011;76552;51.206;4.424;2024-03-17T00:03:25;10.80;;;6.00;;
85815;SDS011;76552;51.206;4.424;2024-03-17T00:03:30;9.80;;;6.00;;
85815;SDS011;76552;51.206;4.424;2024-03-17T00:03:36;9.77;;;6.03;;
85815;SDS011;76552;51.206;4.424;2024-03-17T00:03:42;9.48;;;5.95;;
85815;SDS011;76552;51.206;4.424;2024-03-17T00:03:48;9.70;;;5.93;;
85815;SDS011;76552;51.206;4.424;2024-03-17T00:03:53;10.47;;;6.13;;
85815;SDS011;76552;51.206;4.424;2024-03-17T00:03:59;10.52;;;6.13;;
85815;SDS011;76552;51.206;4.424;2024-03-17T00:04:04;10.70;;;6.10;;
85815;SDS011;76552;51.206;4.424;2024-03-17T00:04:09;10.77;;;5.97;;
85815;SDS011;76552;51.206;4.424;2024-03-17T00:04:14;10.55;;;5.82;;
85815;SDS011;76552;51.206;4.424;2024-03-17T00:04:20;10.47;;;5.73;;
85815;SDS011;76552;51.206;4.424;2024-03-17T00:04:25;10.50;;;5.83;;
85815;SDS011;76552;51.206;4.424;2024-03-17T00:04:32;10.80;;;5.93;;
85815;SDS011;76552;51.206;4.424;2024-03-17T00:04:37;10.73;;;6.07;;
85815;SDS011;76552;51.206;4.424;2024-03-17T00:04:42;11.05;;;6.22;;
85815;SDS011;76552;51.206;4.424;2024-03-17T00:04:48;11.03;;;6.33;;
85815;SDS011;76552;51.206;4.424;2024-03-17T00:04:53;10.43;;;6.30;;
85815;SDS011;76552;51.206;4.424;2024-03-17T00:04:58;10.23;;;6.20;;
85815;SDS011;76552;51.206;4.424;2024-03-17T00:05:04;9.63;;;6.20;;
85815;SDS011;76552;51.206;4.424;2024-03-17T00:05:09;9.10;;;6.10;;
85815;SDS011;76552;51.206;4.424;2024-03-17T00:05:15;9.02;;;6.07;;
85815;SDS011;76552;51.206;4.424;2024-03-17T00:05:20;9.13;;;6.22;;
85815;SDS011;76552;51.206;4.424;2024-03-17T00:05:26;9.90;;;6.30;;
85815;SDS011;76552;51.206;4.424;2024-03-17T00:05:31;10.23;;;6.37;;
85815;SDS011;76552;51.206;4.424;2024-03-17T00:05:37;10.27;;;6.30;;
85815;SDS011;76552;51.206;4.424;2024-03-17T00:05:42;11.00;;;6.40;;
85815;SDS011;76552;51.206;4.424;2024-03-17T00:05:48;11.40;;;6.40;;
85815;SDS011;76552;51.206;4.424;2024-03-17T00:05:57;10.97;;;6.17;;
85815;SDS011;76552;51.206;4.424;2024-03-17T00:06:02;10.87;;;5.99;;
85815;SDS011;76552;51.206;4.424;2024-03-17T00:06:08;11.03;;;5.97;;
85815;SDS011;76552;51.206;4.424;2024-03-17T00:06:14;10.57;;;5.93;;
85815;SDS011;76552;51.206;4.424;2024-03-17T00:06:19;10.27;;;5.82;;
85815;SDS011;76552;51.206;4.424;2024-03-17T00:06:24;10.03;;;5.87;;
85815;SDS011;76552;51.206;4.424;2024-03-17T00:06:30;10.03;;;5.93;;
85815;SDS011;76552;51.206;4.424;2024-03-17T00:06:35;9.50;;;5.80;;
85815;SDS011;76552;51.206;4.424;2024-03-17T00:06:41;9.67;;;5.80;;
85815;SDS011;76552;51.206;4.424;2024-03-17T00:06:46;10.00;;;5.87;;
85815;SDS011;76552;51.206;4.424;2024-03-17T00:06:51;10.30;;;5.78;;
85815;SDS011;76552;51.206;4.424;2024-03-17T00:06:57;10.20;;;5.73;;
85815;SDS011;76552;51.206;4.424;2024-03-17T00:07:02;10.23;;;5.75;;
85815;SDS011;76552;51.206;4.424;2024-03-17T00:07:08;10.10;;;5.80;;
85815;SDS011;76552;51.206;4.424;2024-03-17T00:07:13;10.00;;;5.87;;
85815;SDS011;76552;51.206;4.424;2024-03-17T00:07:19;9.47;;;5.90;;
85815;SDS011;76552;51.206;4.424;2024-03-17T00:07:24;9.52;;;6.10;;
85815;SDS011;76552;51.206;4.424;2024-03-17T00:07:29;9.50;;;6.20;;
85815;SDS011;76552;51.206;4.424;2024-03-17T00:07:35;9.50;;;6.10;;
85815;SDS011;76552;51.206;4.424;2024-03-17T00:07:40;9.50;;;5.93;;
85815;SDS011;76552;51.206;4.424;2024-03-17T00:07:45;9.40;;;5.90;;
85815;SDS011;76552;51.206;4.424;2024-03-17T00:07:50;9.57;;;5.73;;
85815;SDS011;76552;51.206;4.424;2024-03-17T00:07:56;9.73;;;5.70;;
85815;SDS011;76552;51.206;4.424;2024-03-17T00:08:02;9.73;;;5.60;;
85815;SDS011;76552;51.206;4.424;2024-03-17T00:08:09;10.00;;;5.64;;
85815;SDS011;76552;51.206;4.424;2024-03-17T00:08:15;9.90;;;5.53;;
85815;SDS011;76552;51.206;4.424;2024-03-17T00:08:20;9.73;;;5.43;;
85815;SDS011;76552;51.206;4.424;2024-03-17T00:08:26;9.43;;;5.50;;
85815;SDS011;76552;51.206;4.424;2024-03-17T00:08:32;9.17;;;5.50;;
85815;SDS011;76552;51.206;4.424;2024-03-17T00:08:37;9.25;;;5.60;;
85815;SDS011;76552;51.206;4.424;2024-03-17T00:08:43;9.47;;;5.73;;
85815;SDS011;76552;51.206;4.424;2024-03-17T00:08:48;9.57;;;5.80;;
85815;SDS011;76552;51.206;4.424;2024-03-17T00:08:55;9.60;;;5.82;;
85815;SDS011;76552;51.206;4.424;2024-03-17T00:09:00;9.73;;;5.80;;
85815;SDS011;76552;51.206;4.424;2024-03-17T00:09:11;9.54;;;5.71;;
85815;SDS011;76552;51.206;4.424;2024-03-17T00:09:16;9.93;;;5.68;;
85815;SDS011;76552;51.206;4.424;2024-03-17T00:09:23;10.27;;;5.80;;
85815;SDS011;76552;51.206;4.424;2024-03-17T00:09:29;10.27;;;5.80;;
85815;SDS011;76552;51.206;4.424;2024-03-17T00:09:34;10.55;;;5.80;;
85815;SDS011;76552;51.206;4.424;2024-03-17T00:09:40;10.63;;;5.80;;
85815;SDS011;76552;51.206;4.424;2024-03-17T00:09:45;10.23;;;5.80;;
85815;SDS011;76552;51.206;4.424;2024-03-17T00:09:50;9.40;;;5.82;;
85815;SDS011;76552;51.206;4.424;2024-03-17T00:09:56;9.73;;;5.63;;
85815;SDS011;76552;51.206;4.424;2024-03-17T00:10:01;9.57;;;5.70;;
85815;SDS011;76552;51.206;4.424;2024-03-17T00:10:06;9.23;;;5.70;;
85815;SDS011;76552;51.206;4.424;2024-03-17T00:10:15;9.31;;;5.73;;
85815;SDS011;76552;51.206;4.424;2024-03-17T00:10:21;9.53;;;5.80;;
85815;SDS011;76552;51.206;4.424;2024-03-17T00:10:26;9.38;;;5.80;;
85815;SDS011;76552;51.206;4.424;2024-03-17T00:10:31;9.60;;;5.90;;
85815;SDS011;76552;51.206;4.424;2024-03-17T00:10:37;9.63;;;5.87;;
85815;SDS011;76552;51.206;4.424;2024-03-17T00:10:42;10.00;;;5.97;;
85815;SDS011;76552;51.206;4.424;2024-03-17T00:10:49;10.03;;;5.93;;
85815;SDS011;76552;51.206;4.424;2024-03-17T00:10:55;9.70;;;5.90;;
85815;SDS011;76552;51.206;4.424;2024-03-17T00:11:00;10.10;;;5.95;;
85815;SDS011;76552;51.206;4.424;2024-03-17T00:11:05;10.07;;;5.97;;
85815;SDS011;76552;51.206;4.424;2024-03-17T00:11:11;9.73;;;5.77;;
85815;SDS011;76552;51.206;4.424;2024-03-17T00:11:16;10.30;;;5.68;;
85815;SDS011;76552;51.206;4.424;2024-03-17T00:11:22;10.33;;;5.70;;
85815;SDS011;76552;51.206;4.424;2024-03-17T00:11:27;9.98;;;5.72;;
85815;SDS011;76552;51.206;4.424;2024-03-17T00:11:32;9.73;;;5.70;;
85815;SDS011;76552;51.206;4.424;2024-03-17T00:11:40;10.22;;;5.98;;
85815;SDS011;76552;51.206;4.424;2024-03-17T00:11:45;9.73;;;6.00;;
85815;SDS011;76552;51.206;4.424;2024-03-17T00:11:50;10.27;;;6.10;;
85815;SDS011;76552;51.206;4.424;2024-03-17T00:11:56;10.10;;;6.00;;
85815;SDS011;76552;51.206;4.424;2024-03-17T00:12:01;10.25;;;5.97;;
85815;SDS011;76552;51.206;4.424;2024-03-17T00:12:07;10.20;;;5.87;;
85815;SDS011;76552;51.206;4.424;2024-03-17T00:12:12;10.43;;;6.03;;
85815;SDS011;76552;51.206;4.424;2024-03-17T00:12:18;10.90;;;6.13;;
85815;SDS011;76552;51.206;4.424;2024-03-17T00:12:23;10.55;;;6.20;;
85815;SDS011;76552;51.206;4.424;2024-03-17T00:12:28;10.70;;;6.20;;
85815;SDS011;76552;51.206;4.424;2024-03-17T00:12:34;10.63;;;6.23;;
85815;SDS011;76552;51.206;4.424;2024-03-17T00:12:39;11.50;;;6.25;;
85815;SDS011;76552;51.206;4.424;2024-03-17T00:12:44;10.70;;;6.00;;
85815;SDS011;76552;51.206;4.424;2024-03-17T00:12:50;10.37;;;6.00;;
85815;SDS011;76552;51.206;4.424;2024-03-17T00:12:56;10.95;;;6.20;;
85815;SDS011;76552;51.206;4.424;2024-03-17T00:13:02;11.52;;;6.34;;
85815;SDS011;76552;51.206;4.424;2024-03-17T00:13:07;11.07;;;6.33;;
85815;SDS011;76552;51.206;4.424;2024-03-17T00:13:13;10.97;;;6.40;;
85815;SDS011;76552;51.206;4.424;2024-03-17T00:13:18;11.18;;;6.22;;
85815;SDS011;76552;51.206;4.424;2024-03-17T00:13:23;11.43;;;6.13;;
85815;SDS011;76552;51.206;4.424;2024-03-17T00:13:29;11.05;;;6.00;;
85815;SDS011;76552;51.206;4.424;2024-03-17T00:13:34;10.30;;;5.80;;
85815;SDS011;76552;51.206;4.424;2024-03-17T00:13:39;11.43;;;5.83;;
85815;SDS011;76552;51.206;4.424;2024-03-17T00:13:44;11.63;;;5.90;;
85815;SDS011;76552;51.206;4.424;2024-03-17T00:13:50;11.23;;;6.00;;
85815;SDS011;76552;51.206;4.424;2024-03-17T00:13:55;10.73;;;6.00;;
85815;SDS011;76552;51.206;4.424;2024-03-17T00:14:03;10.53;;;6.07;;
85815;SDS011;76552;51.206;4.424;2024-03-17T00:14:10;9.79;;;6.06;;
85815;SDS011;76552;51.206;4.424;2024-03-17T00:14:15;9.13;;;5.97;;
85815;SDS011;76552;51.206;4.424;2024-03-17T00:14:22;9.60;;;6.00;;
85815;SDS011;76552;51.206;4.424;2024-03-17T00:14:27;10.02;;;5.95;;
85815;SDS011;76552;51.206;4.424;2024-03-17T00:14:33;10.43;;;5.85;;
85815;SDS011;76552;51.206;4.424;2024-03-17T00:14:39;11.00;;;5.80;;
85815;SDS011;76552;51.206;4.424;2024-03-17T00:14:44;10.97;;;5.77;;
85815;SDS011;76552;51.206;4.424;2024-03-17T00:14:50;10.73;;;5.70;;
85815;SDS011;76552;51.206;4.424;2024-03-17T00:14:55;10.80;;;5.73;;
85815;SDS011;76552;51.206;4.424;2024-03-17T00:15:00;11.00;;;5.83;;
85815;SDS011;76552;51.206;4.424;2024-03-17T00:15:06;11.95;;;6.05;;
85815;SDS011;76552;51.206;4.424;2024-03-17T00:15:11;11.73;;;6.20;;
85815;SDS011;76552;51.206;4.424;2024-03-17T00:15:17;11.50;;;6.22;;
85815;SDS011;76552;51.206;4.424;2024-03-17T00:15:22;10.80;;;6.10;;
85815;SDS011;76552;51.206;4.424;2024-03-17T00:15:27;10.50;;;5.97;;
85815;SDS011;76552;51.206;4.424;2024-03-17T00:15:33;9.65;;;5.70;;
85815;SDS011;76552;51.206;4.424;2024-03-17T00:15:38;9.43;;;5.53;;
85815;SDS011;76552;51.206;4.424;2024-03-17T00:15:43;9.77;;;5.43;;
85815;SDS011;76552;51.206;4.424;2024-03-17T00:15:49;10.30;;;5.50;;
85815;SDS011;76552;51.206;4.424;2024-03-17T00:15:54;11.03;;;5.60;;
85815;SDS011;76552;51.206;4.424;2024-03-17T00:16:00;11.45;;;5.80;;
85815;SDS011;76552;51.206;4.424;2024-03-17T00:16:05;11.20;;;5.97;;
85815;SDS011;76552;51.206;4.424;2024-03-17T00:16:10;11.07;;;5.90;;
85815;SDS011;76552;51.206;4.424;2024-03-17T00:16:18;10.40;;;5.83;;
85815;SDS011;76552;51.206;4.424;2024-03-17T00:16:23;9.77;;;5.80;;
85815;SDS011;76552;51.206;4.424;2024-03-17T00:16:29;8.95;;;5.68;;
85815;SDS011;76552;51.206;4.424;2024-03-17T00:16:34;8.97;;;5.70;;
85815;SDS011;76552;51.206;4.424;2024-03-17T00:16:39;8.73;;;5.80;;
85815;SDS011;76552;51.206;4.424;2024-03-17T00:16:44;8.68;;;5.75;;
85815;SDS011;76552;51.206;4.424;2024-03-17T00:16:50;8.80;;;5.70;;
85815;SDS011;76552;51.206;4.424;2024-03-17T00:16:55;9.07;;;5.70;;
85815;SDS011;76552;51.206;4.424;2024-03-17T00:17:01;9.43;;;5.70;;
85815;SDS011;76552;51.206;4.424;2024-03-17T00:17:06;9.03;;;5.57;;
85815;SDS011;76552;51.206;4.424;2024-03-17T00:17:11;9.23;;;5.60;;
85815;SDS011;76552;51.206;4.424;2024-03-17T00:17:17;9.35;;;5.68;;
85815;SDS011;76552;51.206;4.424;2024-03-17T00:17:22;9.60;;;5.70;;
85815;SDS011;76552;51.206;4.424;2024-03-17T00:17:28;10.10;;;5.93;;
85815;SDS011;76552;51.206;4.424;2024-03-17T00:17:33;10.23;;;6.03;;
85815;SDS011;76552;51.206;4.424;2024-03-17T00:17:39;10.80;;;6.20;;
85815;SDS011;76552;51.206;4.424;2024-03-17T00:17:44;11.03;;;6.17;;
85815;SDS011;76552;51.206;4.424;2024-03-17T00:17:50;11.35;;;6.32;;
85815;SDS011;76552;51.206;4.424;2024-03-17T00:17:55;12.07;;;6.40;;
85815;SDS011;76552;51.206;4.424;2024-03-17T00:18:00;12.57;;;6.33;;
85815;SDS011;76552;51.206;4.424;2024-03-17T00:18:05;12.85;;;6.30;;
85815;SDS011;76552;51.206;4.424;2024-03-17T00:18:11;12.60;;;6.37;;
85815;SDS011;76552;51.206;4.424;2024-03-17T00:18:16;12.63;;;6.20;;
85815;SDS011;76552;51.206;4.424;2024-03-17T00:18:21;11.80;;;5.95;;
85815;SDS011;76552;51.206;4.424;2024-03-17T00:18:27;10.93;;;5.80;;
85815;SDS011;76552;51.206;4.424;2024-03-17T00:18:33;10.20;;;5.70;;
85815;SDS011;76552;51.206;4.424;2024-03-17T00:18:38;10.63;;;5.63;;
85815;SDS011;76552;51.206;4.424;2024-03-17T00:18:44;10.95;;;5.68;;
85815;SDS011;76552;51.206;4.424;2024-03-17T00:18:51;11.04;;;5.74;;
85815;SDS011;76552;51.206;4.424;2024-03-17T00:18:56;11.60;;;6.00;;
85815;SDS011;76552;51.206;4.424;2024-03-17T00:19:01;11.95;;;6.05;;
85815;SDS011;76552;51.206;4.424;2024-03-17T00:19:07;11.90;;;6.20;;
85815;SDS011;76552;51.206;4.424;2024-03-17T00:19:12;11.63;;;6.30;;
85815;SDS011;76552;51.206;4.424;2024-03-17T00:19:17;11.32;;;6.30;;
85815;SDS011;76552;51.206;4.424;2024-03-17T00:19:23;11.30;;;6.33;;
85815;SDS011;76552;51.206;4.424;2024-03-17T00:19:28;10.80;;;6.30;;
85815;SDS011;76552;51.206;4.424;2024-03-17T00:19:34;10.63;;;6.27;;
85815;SDS011;76552;51.206;4.424;2024-03-17T00:19:39;10.50;;;6.20;;
85815;SDS011;76552;51.206;4.424;2024-03-17T00:19:45;10.70;;;6.20;;
85815;SDS011;76552;51.206;4.424;2024-03-17T00:19:50;10.35;;;6.15;;
85815;SDS011;76552;51.206;4.424;2024-03-17T00:19:56;9.87;;;5.83;;
85815;SDS011;76552;51.206;4.424;2024-03-17T00:20:02;10.27;;;5.80;;
85815;SDS011;76552;51.206;4.424;2024-03-17T00:20:13;10.47;;;5.83;;
85815;SDS011;76552;51.206;4.424;2024-03-17T00:20:24;11.24;;;5.92;;
85815;SDS011;76552;51.206;4.424;2024-03-17T00:20:30;11.80;;;6.10;;
85815;SDS011;76552;51.206;4.424;2024-03-17T00:20:37;11.67;;;5.97;;
85815;SDS011;76552;51.206;4.424;2024-03-17T00:20:43;11.95;;;5.95;;
85815;SDS011;76552;51.206;4.424;2024-03-17T00:20:48;11.63;;;6.10;;
85815;SDS011;76552;51.206;4.424;2024-03-17T00:20:54;11.30;;;5.97;;
85815;SDS011;76552;51.206;4.424;2024-03-17T00:20:59;11.30;;;5.87;;
85815;SDS011;76552;51.206;4.424;2024-03-17T00:21:04;11.50;;;6.05;;
85815;SDS011;76552;51.206;4.424;2024-03-17T00:21:10;10.87;;;6.03;;
85815;SDS011;76552;51.206;4.424;2024-03-17T00:21:15;10.33;;;6.00;;
85815;SDS011;76552;51.206;4.424;2024-03-17T00:21:20;10.10;;;5.85;;
85815;SDS011;76552;51.206;4.424;2024-03-17T00:21:26;10.23;;;6.10;;
85815;SDS011;76552;51.206;4.424;2024-03-17T00:21:31;9.67;;;6.10;;
85815;SDS011;76552;51.206;4.424;2024-03-17T00:21:36;9.68;;;6.15;;
85815;SDS011;76552;51.206;4.424;2024-03-17T00:21:42;10.23;;;6.20;;
85815;SDS011;76552;51.206;4.424;2024-03-17T00:21:48;10.30;;;6.25;;
85815;SDS011;76552;51.206;4.424;2024-03-17T00:21:55;10.42;;;6.22;;
85815;SDS011;76552;51.206;4.424;2024-03-17T00:22:00;10.33;;;6.13;;
85815;SDS011;76552;51.206;4.424;2024-03-17T00:22:06;10.30;;;6.10;;
85815;SDS011;76552;51.206;4.424;2024-03-17T00:22:13;9.90;;;6.03;;
85815;SDS011;76552;51.206;4.424;2024-03-17T00:22:19;9.93;;;5.87;;
85815;SDS011;76552;51.206;4.424;2024-03-17T00:22:25;9.80;;;5.90;;
85815;SDS011;76552;51.206;4.424;2024-03-17T00:22:30;9.83;;;6.00;;
85815;SDS011;76552;51.206;4.424;2024-03-17T00:22:40;10.04;;;6.09;;
85815;SDS011;76552;51.206;4.424;2024-03-17T00:22:49;10.05;;;6.18;;
85815;SDS011;76552;51.206;4.424;2024-03-17T00:22:54;10.34;;;6.14;;
85815;SDS011;76552;51.206;4.424;2024-03-17T00:22:59;10.30;;;6.13;;
85815;SDS011;76552;51.206;4.424;2024-03-17T00:23:05;10.00;;;6.10;;
85815;SDS011;76552;51.206;4.424;2024-03-17T00:23:14;10.04;;;6.10;;
85815;SDS011;76552;51.206;4.424;2024-03-17T00:23:19;9.82;;;6.07;;
85815;SDS011;76552;51.206;4.424;2024-03-17T00:23:24;10.30;;;6.20;;
85815;SDS011;76552;51.206;4.424;2024-03-17T00:23:30;10.57;;;6.13;;
85815;SDS011;76552;51.206;4.424;2024-03-17T00:23:35;10.27;;;6.05;;
85815;SDS011;76552;51.206;4.424;2024-03-17T00:23:41;10.38;;;6.13;;
85815;SDS011;76552;51.206;4.424;2024-03-17T00:23:47;10.73;;;6.27;;
85815;SDS011;76552;51.206;4.424;2024-03-17T00:23:54;10.90;;;6.40;;
85815;SDS011;76552;51.206;4.424;2024-03-17T00:23:59;10.88;;;6.40;;
85815;SDS011;76552;51.206;4.424;2024-03-17T00:24:05;11.70;;;6.43;;
85815;SDS011;76552;51.206;4.424;2024-03-17T00:24:10;12.18;;;6.53;;
85815;SDS011;76552;51.206;4.424;2024-03-17T00:24:18;12.13;;;6.63;;
85815;SDS011;76552;51.206;4.424;2024-03-17T00:24:24;11.77;;;6.55;;
85815;SDS011;76552;51.206;4.424;2024-03-17T00:24:29;11.57;;;6.53;;
85815;SDS011;76552;51.206;4.424;2024-03-17T00:24:40;10.85;;;6.56;;
85815;SDS011;76552;51.206;4.424;2024-03-17T00:24:45;10.80;;;6.47;;
85815;SDS011;76552;51.206;4.424;2024-03-17T00:24:50;10.80;;;6.32;;
85815;SDS011;76552;51.206;4.424;2024-03-17T00:24:56;11.07;;;6.40;;
85815;SDS011;76552;51.206;4.424;2024-03-17T00:25:01;11.40;;;6.30;;
85815;SDS011;76552;51.206;4.424;2024-03-17T00:25:07;11.53;;;6.27;;
85815;SDS011;76552;51.206;4.424;2024-03-17T00:25:13;11.57;;;6.30;;
85815;SDS011;76552;51.206;4.424;2024-03-17T00:25:18;11.07;;;6.30;;
85815;SDS011;76552;51.206;4.424;2024-03-17T00:25:23;10.82;;;6.25;;
85815;SDS011;76552;51.206;4.424;2024-03-17T00:25:29;10.80;;;6.30;;
85815;SDS011;76552;51.206;4.424;2024-03-17T00:25:34;10.60;;;6.30;;
85815;SDS011;76552;51.206;4.424;2024-03-17T00:25:39;10.18;;;6.28;;
85815;SDS011;76552;51.206;4.424;2024-03-17T00:25:47;9.97;;;6.30;;
85815;SDS011;76552;51.206;4.424;2024-03-17T00:25:54;9.97;;;6.40;;
85815;SDS011;76552;51.206;4.424;2024-03-17T00:25:59;9.68;;;6.40;;
85815;SDS011;76552;51.206;4.424;2024-03-17T00:26:05;9.52;;;6.28;;
85815;SDS011;76552;51.206;4.424;2024-03-17T00:26:10;10.10;;;6.30;;
85815;SDS011;76552;51.206;4.424;2024-03-17T00:26:16;10.20;;;6.23;;
85815;SDS011;76552;51.206;4.424;2024-03-17T00:26:21;10.50;;;6.30;;
85815;SDS011;76552;51.206;4.424;2024-03-17T00:26:27;11.13;;;6.43;;
85815;SDS011;76552;51.206;4.424;2024-03-17T00:26:34;11.12;;;6.46;;
85815;SDS011;76552;51.206;4.424;2024-03-17T00:26:39;10.90;;;6.50;;
85815;SDS011;76552;51.206;4.424;2024-03-17T00:26:45;11.17;;;6.60;;
85815;SDS011;76552;51.206;4.424;2024-03-17T00:26:50;10.77;;;6.43;;
85815;SDS011;76552;51.206;4.424;2024-03-17T00:26:55;10.32;;;6.18;;
85815;SDS011;76552;51.206;4.424;2024-03-17T00:27:01;10.13;;;6.20;;
85815;SDS011;76552;51.206;4.424;2024-03-17T00:27:06;9.93;;;6.20;;
85815;SDS011;76552;51.206;4.424;2024-03-17T00:27:12;9.77;;;6.20;;
85815;SDS011;76552;51.206;4.424;2024-03-17T00:27:18;9.62;;;6.04;;
85815;SDS011;76552;51.206;4.424;2024-03-17T00:27:23;9.90;;;6.20;;
85815;SDS011;76552;51.206;4.424;2024-03-17T00:27:29;9.77;;;6.03;;
85815;SDS011;76552;51.206;4.424;2024-03-17T00:27:34;9.88;;;5.95;;
85815;SDS011;76552;51.206;4.424;2024-03-17T00:27:44;9.85;;;6.00;;
85815;SDS011;76552;51.206;4.424;2024-03-17T00:27:50;10.37;;;6.17;;
85815;SDS011;76552;51.206;4.424;2024-03-17T00:27:56;10.72;;;6.24;;
85815;SDS011;76552;51.206;4.424;2024-03-17T00:28:02;10.93;;;6.20;;
85815;SDS011;76552;51.206;4.424;2024-03-17T00:28:08;11.35;;;6.32;;
85815;SDS011;76552;51.206;4.424;2024-03-17T00:28:14;11.70;;;6.37;;
85815;SDS011;76552;51.206;4.424;2024-03-17T00:28:19;11.38;;;6.47;;
85815;SDS011;76552;51.206;4.424;2024-03-17T00:28:25;10.90;;;6.47;;
85815;SDS011;76552;51.206;4.424;2024-03-17T00:28:31;11.07;;;6.60;;
85815;SDS011;76552;51.206;4.424;2024-03-17T00:28:36;10.98;;;6.63;;
85815;SDS011;76552;51.206;4.424;2024-03-17T00:28:41;10.20;;;6.47;;
85815;SDS011;76552;51.206;4.424;2024-03-17T00:28:47;10.73;;;6.50;;
85815;SDS011;76552;51.206;4.424;2024-03-17T00:28:55;10.43;;;6.37;;
85815;SDS011;76552;51.206;4.424;2024-03-17T00:29:00;10.03;;;6.33;;
85815;SDS011;76552;51.206;4.424;2024-03-17T00:29:08;10.47;;;6.43;;
85815;SDS011;76552;51.206;4.424;2024-03-17T00:29:13;10.10;;;6.43;;
85815;SDS011;76552;51.206;4.424;2024-03-17T00:29:19;9.63;;;6.45;;
85815;SDS011;76552;51.206;4.424;2024-03-17T00:29:24;9.70;;;6.33;;
85815;SDS011;76552;51.206;4.424;2024-03-17T00:29:30;9.88;;;6.40;;
85815;SDS011;76552;51.206;4.424;2024-03-17T00:29:36;9.70;;;6.23;;
85815;SDS011;76552;51.206;4.424;2024-03-17T00:29:42;10.02;;;6.30;;
85815;SDS011;76552;51.206;4.424;2024-03-17T00:29:47;10.80;;;6.37;;
85815;SDS011;76552;51.206;4.424;2024-03-17T00:29:52;11.07;;;6.50;;
85815;SDS011;76552;51.206;4.424;2024-03-17T00:29:58;11.23;;;6.50;;
85815;SDS011;76552;51.206;4.424;2024-03-17T00:30:03;11.55;;;6.60;;
85815;SDS011;76552;51.206;4.424;2024-03-17T00:30:14;11.52;;;6.74;;
85815;SDS011;76552;51.206;4.424;2024-03-17T00:30:20;11.00;;;6.70;;
85815;SDS011;76552;51.206;4.424;2024-03-17T00:30:26;10.73;;;6.70;;
85815;SDS011;76552;51.206;4.424;2024-03-17T00:30:31;10.47;;;6.70;;
85815;SDS011;76552;51.206;4.424;2024-03-17T00:30:37;10.32;;;6.75;;
85815;SDS011;76552;51.206;4.424;2024-03-17T00:30:42;10.40;;;6.63;;
85815;SDS011;76552;51.206;4.424;2024-03-17T00:30:47;10.43;;;6.57;;
85815;SDS011;76552;51.206;4.424;2024-03-17T00:30:53;10.17;;;6.43;;
85815;SDS011;76552;51.206;4.424;2024-03-17T00:30:58;10.02;;;6.40;;
85815;SDS011;76552;51.206;4.424;2024-03-17T00:31:03;10.50;;;6.37;;
85815;SDS011;76552;51.206;4.424;2024-03-17T00:31:09;10.60;;;6.47;;
85815;SDS011;76552;51.206;4.424;2024-03-17T00:31:15;10.48;;;6.45;;
85815;SDS011;76552;51.206;4.424;2024-03-17T00:31:20;11.80;;;6.70;;
85815;SDS011;76552;51.206;4.424;2024-03-17T00:31:25;12.07;;;6.83;;
85815;SDS011;76552;51.206;4.424;2024-03-17T00:31:31;12.13;;;6.80;;
85815;SDS011;76552;51.206;4.424;2024-03-17T00:31:36;11.93;;;6.50;;
85815;SDS011;76552;51.206;4.424;2024-03-17T00:31:42;11.77;;;6.43;;
85815;SDS011;76552;51.206;4.424;2024-03-17T00:31:47;12.37;;;6.47;;
85815;SDS011;76552;51.206;4.424;2024-03-17T00:31:52;11.80;;;6.30;;
85815;SDS011;76552;51.206;4.424;2024-03-17T00:31:58;11.60;;;6.22;;
85815;SDS011;76552;51.206;4.424;2024-03-17T00:32:04;10.67;;;6.30;;
85815;SDS011;76552;51.206;4.424;2024-03-17T00:32:09;11.20;;;6.45;;
85815;SDS011;76552;51.206;4.424;2024-03-17T00:32:16;11.38;;;6.58;;
85815;SDS011;76552;51.206;4.424;2024-03-17T00:32:22;10.57;;;6.70;;
85815;SDS011;76552;51.206;4.424;2024-03-17T00:32:28;11.17;;;6.83;;
85815;SDS011;76552;51.206;4.424;2024-03-17T00:32:34;11.53;;;6.80;;
85815;SDS011;76552;51.206;4.424;2024-03-17T00:32:40;11.20;;;6.75;;
85815;SDS011;76552;51.206;4.424;2024-03-17T00:32:45;11.00;;;6.67;;
85815;SDS011;76552;51.206;4.424;2024-03-17T00:32:52;11.13;;;6.72;;
85815;SDS011;76552;51.206;4.424;2024-03-17T00:32:59;11.27;;;6.65;;
85815;SDS011;76552;51.206;4.424;2024-03-17T00:33:04;11.00;;;6.80;;
85815;SDS011;76552;51.206;4.424;2024-03-17T00:33:09;11.20;;;6.80;;
85815;SDS011;76552;51.206;4.424;2024-03-17T00:33:15;12.07;;;6.80;;
85815;SDS011;76552;51.206;4.424;2024-03-17T00:33:20;12.10;;;6.63;;
85815;SDS011;76552;51.206;4.424;2024-03-17T00:33:25;11.50;;;6.57;;
85815;SDS011;76552;51.206;4.424;2024-03-17T00:33:31;11.80;;;6.53;;
85815;SDS011;76552;51.206;4.424;2024-03-17T00:33:36;11.77;;;6.57;;
85815;SDS011;76552;51.206;4.424;2024-03-17T00:33:41;10.67;;;6.40;;
85815;SDS011;76552;51.206;4.424;2024-03-17T00:33:47;9.82;;;6.38;;
85815;SDS011;76552;51.206;4.424;2024-03-17T00:33:53;10.30;;;6.50;;
85815;SDS011;76552;51.206;4.424;2024-03-17T00:33:58;10.00;;;6.40;;
85815;SDS011;76552;51.206;4.424;2024-03-17T00:34:04;9.83;;;6.40;;
85815;SDS011;76552;51.206;4.424;2024-03-17T00:34:09;10.57;;;6.53;;
85815;SDS011;76552;51.206;4.424;2024-03-17T00:34:15;11.07;;;6.65;;